createdAt,value
2018-06-27T00:00:22.121Z,0.00
2018-06-27T00:01:22.051Z,0.00
2018-06-27T00:02:21.964Z,0.00
2018-06-27T00:03:21.887Z,0.00
2018-06-27T00:04:21.800Z,0.00
2018-06-27T00:05:21.720Z,0.00
2018-06-27T00:06:21.645Z,0.00
2018-06-27T00:07:21.564Z,0.00
2018-06-27T00:08:21.489Z,0.00
2018-06-27T00:09:21.398Z,0.00
2018-06-27T00:10:21.322Z,0.00
2018-06-27T00:11:21.245Z,0.00
2018-06-27T00:12:21.159Z,0.00
2018-06-27T00:13:21.091Z,0.00
2018-06-27T00:14:21.003Z,0.00
2018-06-27T00:15:20.938Z,0.00
2018-06-27T00:16:20.846Z,0.00
2018-06-27T00:17:20.763Z,0.00
2018-06-27T00:18:20.691Z,0.00
2018-06-27T00:19:20.637Z,0.00
2018-06-27T00:20:20.541Z,0.00
2018-06-27T00:21:20.437Z,0.00
2018-06-27T00:22:20.361Z,0.00
2018-06-27T00:23:20.288Z,0.00
2018-06-27T00:24:20.201Z,0.00
2018-06-27T00:25:20.121Z,0.00
2018-06-27T00:26:20.035Z,0.00
2018-06-27T00:27:19.962Z,0.00
2018-06-27T00:28:19.887Z,0.00
2018-06-27T00:29:19.804Z,0.00
2018-06-27T00:30:19.728Z,0.00
2018-06-27T00:31:19.637Z,0.00
2018-06-27T00:32:19.560Z,0.00
2018-06-27T00:33:19.478Z,0.00
2018-06-27T00:34:19.407Z,0.00
2018-06-27T00:35:19.331Z,0.00
2018-06-27T00:36:19.242Z,0.00
2018-06-27T00:37:19.162Z,0.00
2018-06-27T00:38:19.078Z,0.00
2018-06-27T00:39:19.003Z,0.00
2018-06-27T00:40:18.931Z,0.00
2018-06-27T00:41:18.837Z,0.00
2018-06-27T00:42:18.761Z,0.00
2018-06-27T00:43:18.676Z,0.00
2018-06-27T00:44:18.602Z,0.00
2018-06-27T00:45:18.518Z,0.00
2018-06-27T00:46:18.444Z,0.00
2018-06-27T00:47:18.364Z,0.00
2018-06-27T00:48:18.276Z,0.00
2018-06-27T00:49:18.206Z,0.00
2018-06-27T00:50:18.118Z,0.00
2018-06-27T00:51:18.042Z,0.00
2018-06-27T00:52:17.956Z,0.00
2018-06-27T00:53:17.874Z,0.00
2018-06-27T00:54:17.801Z,0.00
2018-06-27T00:55:17.719Z,0.00
2018-06-27T00:56:17.646Z,0.00
2018-06-27T00:57:17.552Z,0.00
2018-06-27T00:58:17.476Z,0.00
2018-06-27T00:59:17.400Z,0.00
2018-06-27T01:00:17.313Z,0.00
2018-06-27T01:01:17.243Z,0.00
2018-06-27T01:02:17.154Z,0.00
2018-06-27T01:03:17.075Z,0.00
2018-06-27T01:04:16.989Z,0.00
2018-06-27T01:05:16.917Z,0.00
2018-06-27T01:06:16.842Z,0.00
2018-06-27T01:07:16.756Z,0.00
2018-06-27T01:08:16.683Z,0.00
2018-06-27T01:09:16.602Z,0.00
2018-06-27T01:10:16.516Z,0.00
2018-06-27T01:11:16.431Z,0.00
2018-06-27T01:12:16.355Z,0.00
2018-06-27T01:13:16.264Z,0.00
2018-06-27T01:14:16.189Z,0.00
2018-06-27T01:15:16.117Z,0.00
2018-06-27T01:16:16.029Z,0.00
2018-06-27T01:17:15.958Z,0.00
2018-06-27T01:18:15.872Z,0.00
2018-06-27T01:19:15.792Z,0.00
2018-06-27T01:20:15.704Z,0.00
2018-06-27T01:21:15.633Z,0.00
2018-06-27T01:22:15.558Z,0.00
2018-06-27T01:23:15.470Z,0.00
2018-06-27T01:24:15.395Z,0.00
2018-06-27T01:25:15.302Z,0.00
2018-06-27T01:26:15.227Z,0.00
2018-06-27T01:27:15.147Z,0.00
2018-06-27T01:28:15.073Z,0.00
2018-06-27T01:29:14.993Z,0.00
2018-06-27T01:30:14.905Z,0.00
2018-06-27T01:31:14.828Z,0.00
2018-06-27T01:32:14.741Z,0.00
2018-06-27T01:33:14.670Z,0.00
2018-06-27T01:34:14.596Z,0.00
2018-06-27T01:35:14.508Z,0.00
2018-06-27T01:36:14.423Z,0.00
2018-06-27T01:37:14.342Z,0.00
2018-06-27T01:38:14.258Z,0.00
2018-06-27T01:39:14.182Z,0.00
2018-06-27T01:40:14.106Z,0.00
2018-06-27T01:41:14.024Z,0.00
2018-06-27T01:42:13.949Z,0.00
2018-06-27T01:43:13.855Z,0.00
2018-06-27T01:44:13.779Z,0.00
2018-06-27T01:45:13.697Z,0.00
2018-06-27T01:46:13.621Z,0.00
2018-06-27T01:47:13.549Z,0.00
2018-06-27T01:48:13.461Z,0.00
2018-06-27T01:49:13.382Z,0.00
2018-06-27T01:50:13.295Z,0.00
2018-06-27T01:51:13.224Z,0.00
2018-06-27T01:52:13.136Z,0.00
2018-06-27T01:53:13.058Z,0.00
2018-06-27T01:54:12.972Z,0.00
2018-06-27T01:55:12.894Z,0.00
2018-06-27T01:56:12.820Z,0.00
2018-06-27T01:57:12.734Z,0.00
2018-06-27T01:58:12.673Z,0.00
2018-06-27T01:59:12.584Z,0.00
2018-06-27T02:00:12.497Z,0.00
2018-06-27T02:01:12.413Z,0.00
2018-06-27T02:02:12.340Z,0.00
2018-06-27T02:03:12.261Z,0.00
2018-06-27T02:04:12.173Z,0.00
2018-06-27T02:05:12.095Z,4.00
2018-06-27T02:06:12.011Z,4.00
2018-06-27T02:07:11.939Z,0.00
2018-06-27T02:08:11.849Z,0.00
2018-06-27T02:09:11.771Z,4.00
2018-06-27T02:10:11.685Z,4.00
2018-06-27T02:11:11.622Z,4.00
2018-06-27T02:12:11.534Z,4.00
2018-06-27T02:13:11.452Z,4.00
2018-06-27T02:14:11.377Z,4.00
2018-06-27T02:15:11.282Z,4.00
2018-06-27T02:16:11.210Z,8.00
2018-06-27T02:17:11.125Z,8.00
2018-06-27T02:18:11.050Z,8.00
2018-06-27T02:19:10.971Z,12.00
2018-06-27T02:20:10.890Z,8.00
2018-06-27T02:21:10.823Z,8.00
2018-06-27T02:22:10.724Z,12.00
2018-06-27T02:23:10.653Z,16.00
2018-06-27T02:24:10.564Z,16.00
2018-06-27T02:25:10.489Z,16.00
2018-06-27T02:26:10.401Z,20.00
2018-06-27T02:27:10.321Z,24.00
2018-06-27T02:28:10.249Z,24.00
2018-06-27T02:29:10.164Z,24.00
2018-06-27T02:30:10.088Z,28.00
2018-06-27T02:31:10.002Z,32.00
2018-06-27T02:32:09.925Z,36.00
2018-06-27T02:33:09.841Z,40.00
2018-06-27T02:34:09.772Z,44.00
2018-06-27T02:35:09.689Z,48.00
2018-06-27T02:36:09.602Z,56.00
2018-06-27T02:37:09.525Z,64.00
2018-06-27T02:38:09.436Z,68.00
2018-06-27T02:39:09.374Z,80.00
2018-06-27T02:40:09.280Z,84.00
2018-06-27T02:41:09.201Z,88.00
2018-06-27T02:42:09.114Z,92.00
2018-06-27T02:43:09.035Z,104.00
2018-06-27T02:44:08.963Z,112.00
2018-06-27T02:45:08.878Z,120.00
2018-06-27T02:46:08.803Z,128.00
2018-06-27T02:47:08.714Z,136.00
2018-06-27T02:48:08.641Z,140.00
2018-06-27T02:49:08.557Z,148.00
2018-06-27T02:50:08.481Z,156.00
2018-06-27T02:51:08.391Z,160.00
2018-06-27T02:52:08.316Z,168.00
2018-06-27T02:53:08.237Z,180.00
2018-06-27T02:54:08.150Z,188.00
2018-06-27T02:55:08.079Z,196.00
2018-06-27T02:56:07.992Z,204.00
2018-06-27T02:57:07.912Z,216.00
2018-06-27T02:58:07.838Z,224.00
2018-06-27T02:59:07.758Z,236.00
2018-06-27T03:00:07.666Z,248.00
2018-06-27T03:01:07.598Z,260.00
2018-06-27T03:02:07.519Z,276.00
2018-06-27T03:03:07.427Z,288.00
2018-06-27T03:04:07.361Z,304.00
2018-06-27T03:05:07.267Z,320.00
2018-06-27T03:06:07.193Z,336.00
2018-06-27T03:07:07.108Z,344.00
2018-06-27T03:08:07.032Z,352.00
2018-06-27T03:09:06.942Z,364.00
2018-06-27T03:10:06.866Z,376.00
2018-06-27T03:11:06.796Z,384.00
2018-06-27T03:12:06.708Z,396.00
2018-06-27T03:13:06.635Z,400.00
2018-06-27T03:14:06.541Z,412.00
2018-06-27T03:15:06.464Z,428.00
2018-06-27T03:16:06.390Z,436.00
2018-06-27T03:17:06.307Z,444.00
2018-06-27T03:18:06.234Z,456.00
2018-06-27T03:19:06.147Z,468.00
2018-06-27T03:20:06.067Z,476.00
2018-06-27T03:21:05.984Z,500.00
2018-06-27T03:22:05.925Z,520.00
2018-06-27T03:23:05.820Z,540.00
2018-06-27T03:24:05.744Z,540.00
2018-06-27T03:25:05.654Z,540.00
2018-06-27T03:26:05.579Z,540.00
2018-06-27T03:27:05.509Z,552.00
2018-06-27T03:28:05.436Z,564.00
2018-06-27T03:29:05.340Z,564.00
2018-06-27T03:30:05.255Z,580.00
2018-06-27T03:31:05.182Z,592.00
2018-06-27T03:32:05.094Z,604.00
2018-06-27T03:33:05.035Z,608.00
2018-06-27T03:34:04.947Z,620.00
2018-06-27T03:35:04.854Z,652.00
2018-06-27T03:36:04.782Z,692.00
2018-06-27T03:37:04.696Z,728.00
2018-06-27T03:38:04.623Z,752.00
2018-06-27T03:39:04.539Z,772.00
2018-06-27T03:40:04.461Z,804.00
2018-06-27T03:41:04.370Z,824.00
2018-06-27T03:42:04.296Z,816.00
2018-06-27T03:43:04.220Z,832.00
2018-06-27T03:44:04.133Z,836.00
2018-06-27T03:45:04.063Z,836.00
2018-06-27T03:46:03.986Z,852.00
2018-06-27T03:47:03.897Z,884.00
2018-06-27T03:48:03.813Z,900.00
2018-06-27T03:49:03.731Z,880.00
2018-06-27T03:50:03.646Z,868.00
2018-06-27T03:51:03.579Z,892.00
2018-06-27T03:52:03.500Z,904.00
2018-06-27T03:53:03.409Z,912.00
2018-06-27T03:54:03.334Z,1004.00
2018-06-27T03:55:03.243Z,1056.00
2018-06-27T03:56:03.182Z,1092.00
2018-06-27T03:57:03.094Z,1136.00
2018-06-27T03:58:03.014Z,1180.00
2018-06-27T03:59:02.946Z,1260.00
2018-06-27T04:00:02.844Z,1312.00
2018-06-27T04:01:02.775Z,1396.00
2018-06-27T04:02:02.688Z,1468.00
2018-06-27T04:03:02.614Z,1516.00
2018-06-27T04:04:02.526Z,1540.00
2018-06-27T04:05:02.447Z,1548.00
2018-06-27T04:06:02.360Z,1516.00
2018-06-27T04:07:02.287Z,1504.00
2018-06-27T04:08:02.212Z,1548.00
2018-06-27T04:09:02.121Z,1560.00
2018-06-27T04:10:02.045Z,1612.00
2018-06-27T04:11:01.962Z,1692.00
2018-06-27T04:12:01.885Z,1880.00
2018-06-27T04:13:01.852Z,2164.00
2018-06-27T04:14:01.728Z,2416.00
2018-06-27T04:15:01.650Z,2640.00
2018-06-27T04:16:01.573Z,2940.00
2018-06-27T04:17:01.491Z,3036.00
2018-06-27T04:18:01.406Z,2752.00
2018-06-27T04:19:01.326Z,2436.00
2018-06-27T04:20:01.252Z,2304.00
2018-06-27T04:21:01.160Z,2152.00
2018-06-27T04:22:01.084Z,1988.00
2018-06-27T04:23:01.004Z,1848.00
2018-06-27T04:24:00.928Z,1752.00
2018-06-27T04:25:00.839Z,1648.00
2018-06-27T04:26:00.763Z,1624.00
2018-06-27T04:27:00.686Z,1660.00
2018-06-27T04:28:00.610Z,1792.00
2018-06-27T04:29:00.527Z,1828.00
2018-06-27T04:30:00.442Z,1888.00
2018-06-27T04:31:00.362Z,1976.00
2018-06-27T04:32:00.285Z,2156.00
2018-06-27T04:33:00.215Z,2300.00
2018-06-27T04:34:00.127Z,2392.00
2018-06-27T04:35:00.057Z,2288.00
2018-06-27T04:36:00.029Z,2112.00
2018-06-27T04:36:59.889Z,2140.00
2018-06-27T04:37:59.813Z,2580.00
2018-06-27T04:38:59.727Z,2312.00
2018-06-27T04:39:59.652Z,2024.00
2018-06-27T04:40:59.574Z,2536.00
2018-06-27T04:41:59.487Z,2940.00
2018-06-27T04:42:59.417Z,2088.00
2018-06-27T04:43:59.326Z,2536.00
2018-06-27T04:44:59.255Z,3276.00
2018-06-27T04:45:59.169Z,3372.00
2018-06-27T04:46:59.087Z,3652.00
2018-06-27T04:47:59.012Z,3800.00
2018-06-27T04:48:58.928Z,4256.00
2018-06-27T04:49:58.853Z,4572.00
2018-06-27T04:50:58.781Z,4704.00
2018-06-27T04:51:58.694Z,4656.00
2018-06-27T04:52:58.615Z,4276.00
2018-06-27T04:53:58.540Z,4304.00
2018-06-27T04:54:58.522Z,4264.00
2018-06-27T04:55:58.382Z,3676.00
2018-06-27T04:56:58.300Z,3244.00
2018-06-27T04:57:58.216Z,3100.00
2018-06-27T04:58:58.140Z,2816.00
2018-06-27T04:59:58.073Z,2560.00
2018-06-27T05:00:57.999Z,2352.00
2018-06-27T05:01:57.910Z,2352.00
2018-06-27T05:02:57.828Z,2480.00
2018-06-27T05:03:57.753Z,2608.00
2018-06-27T05:04:57.682Z,2780.00
2018-06-27T05:05:57.607Z,3060.00
2018-06-27T05:06:57.519Z,3388.00
2018-06-27T05:07:57.444Z,3596.00
2018-06-27T05:08:57.365Z,3740.00
2018-06-27T05:09:57.291Z,3908.00
2018-06-27T05:10:57.207Z,4132.00
2018-06-27T05:11:57.133Z,4344.00
2018-06-27T05:12:57.054Z,4584.00
2018-06-27T05:13:56.994Z,4780.00
2018-06-27T05:14:56.889Z,4728.00
2018-06-27T05:15:56.884Z,4620.00
2018-06-27T05:16:56.745Z,4476.00
2018-06-27T05:17:56.669Z,4364.00
2018-06-27T05:18:56.579Z,3960.00
2018-06-27T05:19:56.502Z,3656.00
2018-06-27T05:20:56.431Z,3484.00
2018-06-27T05:21:56.357Z,3416.00
2018-06-27T05:22:56.273Z,3204.00
2018-06-27T05:23:56.197Z,2936.00
2018-06-27T05:24:56.122Z,2688.00
2018-06-27T05:25:56.044Z,2560.00
2018-06-27T05:26:55.957Z,2484.00
2018-06-27T05:27:55.883Z,2392.00
2018-06-27T05:28:55.803Z,2320.00
2018-06-27T05:29:55.728Z,2260.00
2018-06-27T05:30:55.645Z,2228.00
2018-06-27T05:31:55.570Z,2208.00
2018-06-27T05:32:55.499Z,2208.00
2018-06-27T05:33:55.421Z,2208.00
2018-06-27T05:34:55.331Z,2220.00
2018-06-27T05:35:55.256Z,2236.00
2018-06-27T05:36:55.185Z,2252.00
2018-06-27T05:37:55.099Z,2284.00
2018-06-27T05:38:55.022Z,2300.00
2018-06-27T05:39:54.947Z,2296.00
2018-06-27T05:40:54.868Z,2308.00
2018-06-27T05:41:54.780Z,2320.00
2018-06-27T05:42:54.711Z,2320.00
2018-06-27T05:43:54.637Z,2312.00
2018-06-27T05:44:54.545Z,2324.00
2018-06-27T05:45:54.471Z,2332.00
2018-06-27T05:46:54.393Z,2364.00
2018-06-27T05:47:54.319Z,2380.00
2018-06-27T05:48:54.235Z,2380.00
2018-06-27T05:49:54.176Z,2352.00
2018-06-27T05:50:54.085Z,2368.00
2018-06-27T05:51:54.015Z,2468.00
2018-06-27T05:52:53.920Z,2384.00
2018-06-27T05:53:53.844Z,2408.00
2018-06-27T05:54:53.771Z,2372.00
2018-06-27T05:55:53.684Z,2388.00
2018-06-27T05:56:53.613Z,2356.00
2018-06-27T05:57:53.537Z,2372.00
2018-06-27T05:58:53.456Z,2400.00
2018-06-27T05:59:53.370Z,2352.00
2018-06-27T06:00:53.301Z,2380.00
2018-06-27T06:01:53.225Z,2396.00
2018-06-27T06:02:53.139Z,2352.00
2018-06-27T06:03:53.064Z,2396.00
2018-06-27T06:04:52.984Z,2416.00
2018-06-27T06:05:52.912Z,2404.00
2018-06-27T06:06:52.828Z,2428.00
2018-06-27T06:07:52.754Z,2504.00
2018-06-27T06:08:52.673Z,2404.00
2018-06-27T06:09:52.585Z,2364.00
2018-06-27T06:10:52.521Z,2400.00
2018-06-27T06:11:52.435Z,2432.00
2018-06-27T06:12:52.420Z,2428.00
2018-06-27T06:13:52.276Z,2420.00
2018-06-27T06:14:52.199Z,2456.00
2018-06-27T06:15:52.131Z,2448.00
2018-06-27T06:16:52.041Z,2456.00
2018-06-27T06:17:51.966Z,2460.00
2018-06-27T06:18:51.888Z,2472.00
2018-06-27T06:19:51.819Z,2504.00
2018-06-27T06:20:51.723Z,2560.00
2018-06-27T06:21:51.647Z,2668.00
2018-06-27T06:22:51.577Z,2804.00
2018-06-27T06:23:51.507Z,2936.00
2018-06-27T06:24:51.410Z,2996.00
2018-06-27T06:25:51.336Z,3120.00
2018-06-27T06:26:51.262Z,3296.00
2018-06-27T06:27:51.187Z,3436.00
2018-06-27T06:28:51.116Z,3540.00
2018-06-27T06:29:51.031Z,3512.00
2018-06-27T06:30:50.952Z,3472.00
2018-06-27T06:31:50.873Z,3464.00
2018-06-27T06:32:50.789Z,3376.00
2018-06-27T06:33:50.719Z,3312.00
2018-06-27T06:34:50.644Z,3248.00
2018-06-27T06:35:50.567Z,3224.00
2018-06-27T06:36:50.477Z,3184.00
2018-06-27T06:37:50.404Z,3192.00
2018-06-27T06:38:50.334Z,3192.00
2018-06-27T06:39:50.256Z,3192.00
2018-06-27T06:40:50.204Z,3152.00
2018-06-27T06:41:50.089Z,3152.00
2018-06-27T06:42:50.012Z,3180.00
2018-06-27T06:43:49.937Z,3224.00
2018-06-27T06:44:49.854Z,3240.00
2018-06-27T06:45:49.779Z,3244.00
2018-06-27T06:46:49.705Z,3216.00
2018-06-27T06:47:49.627Z,3216.00
2018-06-27T06:48:49.556Z,3232.00
2018-06-27T06:49:49.469Z,3664.00
2018-06-27T06:50:49.405Z,3644.00
2018-06-27T06:51:49.317Z,3528.00
2018-06-27T06:52:49.237Z,3424.00
2018-06-27T06:53:49.163Z,3380.00
2018-06-27T06:54:49.083Z,3456.00
2018-06-27T06:55:49.010Z,3404.00
2018-06-27T06:56:48.930Z,3400.00
2018-06-27T06:57:48.856Z,3520.00
2018-06-27T06:58:48.829Z,3652.00
2018-06-27T06:59:48.695Z,3640.00
2018-06-27T07:00:48.618Z,3556.00
2018-06-27T07:01:48.543Z,3688.00
2018-06-27T07:02:48.465Z,3736.00
2018-06-27T07:03:48.390Z,3744.00
2018-06-27T07:04:48.309Z,3772.00
2018-06-27T07:05:48.234Z,3788.00
2018-06-27T07:06:48.155Z,4300.00
2018-06-27T07:07:48.082Z,5756.00
2018-06-27T07:08:48.002Z,4484.00
2018-06-27T07:09:47.927Z,4704.00
2018-06-27T07:10:47.844Z,3988.00
2018-06-27T07:11:47.769Z,4020.00
2018-06-27T07:12:47.689Z,3956.00
2018-06-27T07:13:47.616Z,4288.00
2018-06-27T07:14:47.541Z,4076.00
2018-06-27T07:15:47.459Z,4040.00
2018-06-27T07:16:47.385Z,4092.00
2018-06-27T07:17:47.361Z,4120.00
2018-06-27T07:18:47.228Z,4148.00
2018-06-27T07:19:47.153Z,4148.00
2018-06-27T07:20:47.083Z,4212.00
2018-06-27T07:21:46.996Z,4228.00
2018-06-27T07:22:46.922Z,4316.00
2018-06-27T07:23:46.847Z,4280.00
2018-06-27T07:24:46.768Z,5268.00
2018-06-27T07:25:46.693Z,4340.00
2018-06-27T07:26:46.625Z,4432.00
2018-06-27T07:27:46.548Z,4572.00
2018-06-27T07:28:46.484Z,6796.00
2018-06-27T07:29:46.382Z,9708.00
2018-06-27T07:30:46.305Z,8904.00
2018-06-27T07:31:46.231Z,6420.00
2018-06-27T07:32:46.159Z,5392.00
2018-06-27T07:33:46.085Z,4992.00
2018-06-27T07:34:46.008Z,5904.00
2018-06-27T07:35:45.921Z,5612.00
2018-06-27T07:36:45.849Z,4996.00
2018-06-27T07:37:45.774Z,5396.00
2018-06-27T07:38:45.697Z,6016.00
2018-06-27T07:39:45.622Z,6628.00
2018-06-27T07:40:45.543Z,7820.00
2018-06-27T07:41:45.468Z,7160.00
2018-06-27T07:42:45.397Z,10048.00
2018-06-27T07:43:45.322Z,13416.00
2018-06-27T07:44:45.243Z,8884.00
2018-06-27T07:45:45.157Z,15924.00
2018-06-27T07:46:45.084Z,5584.00
2018-06-27T07:47:45.009Z,15188.00
2018-06-27T07:48:44.938Z,16240.00
2018-06-27T07:49:44.917Z,18048.00
2018-06-27T07:50:44.783Z,17088.00
2018-06-27T07:51:44.709Z,9664.00
2018-06-27T07:52:44.636Z,18656.00
2018-06-27T07:53:44.573Z,7992.00
2018-06-27T07:54:44.515Z,8900.00
2018-06-27T07:55:44.426Z,17248.00
2018-06-27T07:56:44.347Z,15544.00
2018-06-27T07:57:44.272Z,14544.00
2018-06-27T07:58:44.208Z,13608.00
2018-06-27T07:59:44.120Z,12884.00
2018-06-27T08:00:44.050Z,13008.00
2018-06-27T08:01:43.988Z,11720.00
2018-06-27T08:02:43.915Z,9344.00
2018-06-27T08:03:43.840Z,11392.00
2018-06-27T08:04:43.761Z,13288.00
2018-06-27T08:05:43.698Z,13016.00
2018-06-27T08:06:43.625Z,12572.00
2018-06-27T08:07:43.552Z,11312.00
2018-06-27T08:08:43.491Z,9508.00
2018-06-27T08:09:43.409Z,8424.00
2018-06-27T08:10:43.337Z,9452.00
2018-06-27T08:11:43.273Z,10608.00
2018-06-27T08:12:43.221Z,11064.00
2018-06-27T08:13:43.140Z,10500.00
2018-06-27T08:14:43.062Z,12400.00
2018-06-27T08:15:43.001Z,14916.00
2018-06-27T08:16:42.928Z,15876.00
2018-06-27T08:17:42.952Z,15268.00
2018-06-27T08:18:42.794Z,16112.00
2018-06-27T08:19:42.726Z,16736.00
2018-06-27T08:20:42.660Z,15824.00
2018-06-27T08:21:42.590Z,17472.00
2018-06-27T08:22:42.529Z,17184.00
2018-06-27T08:23:42.467Z,17120.00
2018-06-27T08:24:42.390Z,15064.00
2018-06-27T08:25:42.315Z,14060.00
2018-06-27T08:26:42.248Z,13348.00
2018-06-27T08:27:42.203Z,9280.00
2018-06-27T08:28:42.116Z,6204.00
2018-06-27T08:29:42.052Z,5096.00
2018-06-27T08:30:41.986Z,5032.00
2018-06-27T08:31:41.912Z,5420.00
2018-06-27T08:32:41.853Z,5428.00
2018-06-27T08:33:41.792Z,6276.00
2018-06-27T08:34:41.719Z,7796.00
2018-06-27T08:35:41.655Z,8408.00
2018-06-27T08:36:41.589Z,8980.00
2018-06-27T08:37:41.514Z,10228.00
2018-06-27T08:38:41.441Z,9200.00
2018-06-27T08:39:41.382Z,7024.00
2018-06-27T08:40:41.300Z,9120.00
2018-06-27T08:41:41.237Z,14164.00
2018-06-27T08:42:41.176Z,6844.00
2018-06-27T08:43:41.136Z,7500.00
2018-06-27T08:44:41.031Z,13300.00
2018-06-27T08:45:40.969Z,11168.00
2018-06-27T08:46:40.890Z,8392.00
2018-06-27T08:47:40.827Z,5596.00
2018-06-27T08:48:40.756Z,6532.00
2018-06-27T08:49:40.681Z,8640.00
2018-06-27T08:50:40.618Z,7676.00
2018-06-27T08:51:40.558Z,8424.00
2018-06-27T08:52:40.464Z,18240.00
2018-06-27T08:53:40.402Z,19072.00
2018-06-27T08:54:40.332Z,9996.00
2018-06-27T08:55:40.257Z,10156.00
2018-06-27T08:56:40.180Z,7684.00
2018-06-27T08:57:40.116Z,6584.00
2018-06-27T08:58:40.082Z,9616.00
2018-06-27T08:59:39.966Z,10364.00
2018-06-27T09:00:39.906Z,10916.00
2018-06-27T09:01:39.831Z,9516.00
2018-06-27T09:02:39.754Z,19200.00
2018-06-27T09:03:39.693Z,17184.00
2018-06-27T09:04:39.623Z,18528.00
2018-06-27T09:05:39.559Z,21376.00
2018-06-27T09:06:39.469Z,23904.00
2018-06-27T09:07:39.455Z,21440.00
2018-06-27T09:08:39.327Z,21216.00
2018-06-27T09:09:39.255Z,10836.00
2018-06-27T09:10:39.196Z,8216.00
2018-06-27T09:11:39.122Z,15488.00
2018-06-27T09:12:39.055Z,9308.00
2018-06-27T09:13:38.992Z,11012.00
2018-06-27T09:14:38.916Z,13712.00
2018-06-27T09:15:38.854Z,27616.00
2018-06-27T09:16:38.800Z,18944.00
2018-06-27T09:17:38.708Z,15568.00
2018-06-27T09:18:38.658Z,12764.00
2018-06-27T09:19:38.567Z,12636.00
2018-06-27T09:20:38.508Z,11816.00
2018-06-27T09:21:38.437Z,14192.00
2018-06-27T09:22:38.373Z,30304.00
2018-06-27T09:23:38.298Z,32320.00
2018-06-27T09:24:38.230Z,32576.00
2018-06-27T09:25:38.156Z,22464.00
2018-06-27T09:26:38.097Z,12308.00
2018-06-27T09:27:38.021Z,25120.00
2018-06-27T09:28:37.954Z,11272.00
2018-06-27T09:29:37.879Z,27520.00
2018-06-27T09:30:37.820Z,23360.00
2018-06-27T09:31:37.758Z,12624.00
2018-06-27T09:32:37.687Z,12576.00
2018-06-27T09:33:37.624Z,12572.00
2018-06-27T09:34:37.545Z,13144.00
2018-06-27T09:35:37.483Z,34848.00
2018-06-27T09:36:37.412Z,31392.00
2018-06-27T09:37:37.350Z,31936.00
2018-06-27T09:38:37.273Z,32224.00
2018-06-27T09:39:37.210Z,27552.00
2018-06-27T09:40:37.130Z,6988.00
2018-06-27T09:41:37.070Z,20256.00
2018-06-27T09:42:37.012Z,12104.00
2018-06-27T09:43:36.941Z,13348.00
2018-06-27T09:44:36.871Z,14388.00
2018-06-27T09:45:36.797Z,12192.00
2018-06-27T09:46:36.731Z,11168.00
2018-06-27T09:47:36.657Z,9340.00
2018-06-27T09:48:36.599Z,7876.00
2018-06-27T09:49:36.524Z,7000.00
2018-06-27T09:50:36.457Z,8552.00
2018-06-27T09:51:36.384Z,10408.00
2018-06-27T09:52:36.324Z,13000.00
2018-06-27T09:53:36.249Z,15180.00
2018-06-27T09:54:36.188Z,17920.00
2018-06-27T09:55:36.115Z,26848.00
2018-06-27T09:56:36.109Z,33440.00
2018-06-27T09:57:35.973Z,32448.00
2018-06-27T09:58:35.912Z,30848.00
2018-06-27T09:59:35.837Z,28928.00
2018-06-27T10:00:35.759Z,10372.00
2018-06-27T10:01:35.696Z,10472.00
2018-06-27T10:02:35.623Z,10512.00
2018-06-27T10:03:35.560Z,15764.00
2018-06-27T10:04:35.489Z,33088.00
2018-06-27T10:05:35.427Z,15620.00
2018-06-27T10:06:35.353Z,24032.00
2018-06-27T10:07:35.290Z,13764.00
2018-06-27T10:08:35.210Z,17600.00
2018-06-27T10:09:35.148Z,15000.00
2018-06-27T10:10:35.071Z,13428.00
2018-06-27T10:11:35.009Z,12708.00
2018-06-27T10:12:34.938Z,9260.00
2018-06-27T10:13:34.876Z,9444.00
2018-06-27T10:14:34.800Z,10952.00
2018-06-27T10:15:34.736Z,12124.00
2018-06-27T10:16:34.666Z,13180.00
2018-06-27T10:17:34.603Z,11352.00
2018-06-27T10:18:34.526Z,10624.00
2018-06-27T10:19:34.459Z,11180.00
2018-06-27T10:20:34.385Z,11504.00
2018-06-27T10:21:34.322Z,8312.00
2018-06-27T10:22:34.282Z,6044.00
2018-06-27T10:23:34.177Z,6984.00
2018-06-27T10:24:34.101Z,8440.00
2018-06-27T10:25:34.035Z,10016.00
2018-06-27T10:26:33.963Z,11916.00
2018-06-27T10:27:33.901Z,13352.00
2018-06-27T10:28:33.848Z,12556.00
2018-06-27T10:29:33.763Z,12052.00
2018-06-27T10:30:33.686Z,13028.00
2018-06-27T10:31:33.624Z,15488.00
2018-06-27T10:32:33.539Z,17084.00
2018-06-27T10:33:33.480Z,16624.00
2018-06-27T10:34:33.412Z,14624.00
2018-06-27T10:35:33.332Z,12484.00
2018-06-27T10:36:33.263Z,10996.00
2018-06-27T10:37:33.188Z,11760.00
2018-06-27T10:38:33.120Z,14684.00
2018-06-27T10:39:33.058Z,15888.00
2018-06-27T10:40:32.980Z,17472.00
2018-06-27T10:41:32.913Z,17216.00
2018-06-27T10:42:32.850Z,18208.00
2018-06-27T10:43:32.762Z,15116.00
2018-06-27T10:44:32.717Z,13916.00
2018-06-27T10:45:32.629Z,15828.00
2018-06-27T10:46:32.553Z,21440.00
2018-06-27T10:47:32.489Z,17568.00
2018-06-27T10:48:32.419Z,18336.00
2018-06-27T10:49:32.345Z,15996.00
2018-06-27T10:50:32.279Z,13564.00
2018-06-27T10:51:32.205Z,12204.00
2018-06-27T10:52:32.126Z,12512.00
2018-06-27T10:53:32.063Z,42112.00
2018-06-27T10:54:31.992Z,41664.00
2018-06-27T10:55:31.919Z,32576.00
2018-06-27T10:56:31.851Z,38112.00
2018-06-27T10:57:31.777Z,37408.00
2018-06-27T10:58:31.726Z,36448.00
2018-06-27T10:59:31.641Z,35712.00
2018-06-27T11:00:31.583Z,34432.00
2018-06-27T11:01:31.508Z,34368.00
2018-06-27T11:02:31.439Z,28224.00
2018-06-27T11:03:31.377Z,13308.00
2018-06-27T11:04:31.312Z,19008.00
2018-06-27T11:05:31.244Z,41632.00
2018-06-27T11:06:31.184Z,40448.00
2018-06-27T11:07:31.109Z,39840.00
2018-06-27T11:08:31.042Z,41472.00
2018-06-27T11:09:30.981Z,44608.00
2018-06-27T11:10:30.919Z,46112.00
2018-06-27T11:11:30.845Z,47104.00
2018-06-27T11:12:30.778Z,47872.00
2018-06-27T11:13:30.715Z,28928.00
2018-06-27T11:14:30.656Z,43456.00
2018-06-27T11:15:30.592Z,43872.00
2018-06-27T11:16:30.535Z,12920.00
2018-06-27T11:17:30.460Z,13836.00
2018-06-27T11:18:30.391Z,45248.00
2018-06-27T11:19:30.329Z,38976.00
2018-06-27T11:20:30.317Z,9360.00
2018-06-27T11:21:30.208Z,43232.00
2018-06-27T11:22:30.147Z,45568.00
2018-06-27T11:23:30.073Z,17092.00
2018-06-27T11:24:30.013Z,10688.00
2018-06-27T11:25:29.944Z,9928.00
2018-06-27T11:26:29.886Z,9268.00
2018-06-27T11:27:29.887Z,10144.00
2018-06-27T11:28:29.745Z,28544.00
2018-06-27T11:29:29.694Z,47840.00
2018-06-27T11:30:29.633Z,49536.00
2018-06-27T11:31:29.555Z,52416.00
2018-06-27T11:32:29.496Z,55104.00
2018-06-27T11:33:29.434Z,18816.00
2018-06-27T11:34:29.359Z,50496.00
2018-06-27T11:35:29.295Z,22560.00
2018-06-27T11:36:29.225Z,24480.00
2018-06-27T11:37:29.163Z,19744.00
2018-06-27T11:38:29.184Z,11200.00
2018-06-27T11:39:29.038Z,9356.00
2018-06-27T11:40:28.982Z,11168.00
2018-06-27T11:41:28.894Z,28864.00
2018-06-27T11:42:28.837Z,53696.00
2018-06-27T11:43:28.786Z,54400.00
2018-06-27T11:44:28.723Z,56672.00
2018-06-27T11:45:28.635Z,22528.00
2018-06-27T11:46:28.571Z,58144.00
2018-06-27T11:47:28.511Z,21728.00
2018-06-27T11:48:28.439Z,62560.00
2018-06-27T11:49:28.377Z,60480.00
2018-06-27T11:50:28.312Z,58624.00
2018-06-27T11:51:28.244Z,55072.00
2018-06-27T11:52:28.174Z,53248.00
2018-06-27T11:53:28.113Z,52896.00
2018-06-27T11:54:28.051Z,51968.00
2018-06-27T11:55:27.989Z,51680.00
2018-06-27T12:36:29.304Z,57088.00
2018-06-27T12:37:29.237Z,58624.00
2018-06-27T12:41:17.692Z,60064.00
2018-06-27T12:42:59.766Z,60672.00
2018-06-27T13:21:54.760Z,7412.00
2018-06-27T13:34:08.747Z,14312.00
2018-06-27T13:35:08.680Z,16656.00
2018-06-27T13:36:08.605Z,22944.00
2018-06-27T13:37:08.546Z,19584.00
2018-06-27T13:38:08.474Z,19264.00
2018-06-27T13:39:08.411Z,17504.00
2018-06-27T13:40:08.341Z,16296.00
2018-06-27T13:41:08.269Z,13336.00
2018-06-27T13:42:08.194Z,11528.00
2018-06-27T13:43:08.123Z,10220.00
2018-06-27T13:44:08.074Z,9776.00
2018-06-27T13:45:07.988Z,9940.00
2018-06-27T13:46:07.925Z,10976.00
2018-06-27T13:47:07.846Z,11888.00